Time;durP1;ratioP1;P1;durP2;ratioP2;P2;SDS_P1;SDS_P2;PMS_P1;PMS_P2;Temp;Humidity;BMP_temperature;BMP_pressure;BME280_temperature;BME280_humidity;BME280_pressure;Samples;Min_cycle;Max_cycle;Signal;HPM_P1;HPM_P2
2021/12/31 00:00:23;;;;;;;2.70;2.50;;;17.10;80.00;;;-142.21;100.00;112049.66;5111331;28;20500;-78
2021/12/31 00:02:50;;;;;;;3.10;2.33;;;17.20;80.00;;;-142.21;100.00;112049.66;5111555;28;20525;-78
2021/12/31 00:05:19;;;;;;;5.50;2.80;;;17.10;79.90;;;-142.21;100.00;112049.66;5111372;28;20488;-80
2021/12/31 00:07:49;;;;;;;4.77;3.20;;;17.20;80.20;;;-142.21;100.00;112049.66;5112256;28;20580;-77
2021/12/31 00:10:16;;;;;;;6.30;3.00;;;17.10;80.10;;;-142.21;100.00;112049.66;5113027;28;20785;-79
2021/12/31 00:12:44;;;;;;;3.23;2.93;;;17.10;80.60;;;-142.21;100.00;112049.66;5115669;28;20488;-80
2021/12/31 00:15:13;;;;;;;3.40;2.90;;;17.10;80.70;;;-142.21;100.00;112049.66;5116208;28;20494;-77
2021/12/31 00:17:40;;;;;;;3.37;3.03;;;17.10;80.70;;;-142.21;100.00;112049.66;5114101;28;20480;-79
2021/12/31 00:20:13;;;;;;;6.03;3.13;;;17.10;80.60;;;-142.21;100.00;112049.66;5115830;28;20438;-79
2021/12/31 00:22:59;;;;;;;3.70;2.70;;;17.10;80.70;;;-142.21;100.00;112049.66;5115625;28;20502;-78
2021/12/31 00:25:27;;;;;;;3.67;2.80;;;17.10;80.50;;;-142.21;100.00;112049.66;5094843;28;20438;-78
2021/12/31 00:27:56;;;;;;;3.67;2.73;;;17.10;80.60;;;-142.21;100.00;112049.66;5094970;28;20486;-79
2021/12/31 00:30:23;;;;;;;3.37;3.07;;;17.10;80.70;;;-142.21;100.00;112049.66;5113517;28;20797;-79
2021/12/31 00:32:51;;;;;;;3.33;3.00;;;17.00;80.80;;;-142.21;100.00;112049.66;5115192;28;20532;-80
2021/12/31 00:35:19;;;;;;;4.43;3.03;;;16.90;80.70;;;-142.21;100.00;112049.66;5115369;28;20481;-79
2021/12/31 00:37:47;;;;;;;5.17;3.07;;;17.00;81.10;;;-142.21;100.00;112049.66;5114501;28;20456;-79
2021/12/31 00:40:18;;;;;;;4.17;3.33;;;16.90;80.90;;;-142.21;100.00;112049.66;5115607;28;20477;-79
2021/12/31 00:42:46;;;;;;;3.57;3.20;;;16.90;81.10;;;-142.21;100.00;112049.66;5114856;28;20512;-79
2021/12/31 00:45:16;;;;;;;3.23;2.93;;;16.80;81.10;;;-142.21;100.00;112049.66;5114858;28;20863;-79
2021/12/31 00:47:44;;;;;;;4.70;3.30;;;16.80;81.30;;;-142.21;100.00;112049.66;5114062;28;20469;-77
2021/12/31 00:50:13;;;;;;;4.80;3.37;;;16.80;81.20;;;-142.21;100.00;112049.66;5115446;28;20446;-79
2021/12/31 00:52:41;;;;;;;4.03;2.73;;;16.70;81.20;;;-142.21;100.00;112049.66;5114403;28;20528;-79
2021/12/31 00:55:12;;;;;;;4.60;3.13;;;16.70;81.20;;;-142.21;100.00;112049.66;5115375;28;20445;-78
2021/12/31 00:57:41;;;;;;;3.40;3.10;;;16.70;81.40;;;-142.21;100.00;112049.66;5130792;27;20449;-79
2021/12/31 01:00:12;;;;;;;3.13;2.57;;;16.70;81.70;;;-142.21;100.00;112049.66;5114836;28;20816;-79
2021/12/31 01:02:39;;;;;;;2.93;2.63;;;16.60;81.80;;;-142.21;100.00;112049.66;5115024;28;20512;-79
2021/12/31 01:05:08;;;;;;;3.20;2.90;;;16.60;81.60;;;-142.21;100.00;112049.66;5095360;28;20450;-79
2021/12/31 01:07:35;;;;;;;3.60;3.00;;;16.60;82.10;;;-142.21;100.00;112049.66;5094780;28;20537;-79
2021/12/31 01:10:04;;;;;;;5.43;3.03;;;16.50;81.90;;;-142.21;100.00;112049.66;5112418;28;20450;-76
2021/12/31 01:12:32;;;;;;;4.97;3.37;;;16.50;81.90;;;-142.21;100.00;112049.66;5115014;28;20540;-79
2021/12/31 01:15:03;;;;;;;4.37;3.07;;;16.60;81.90;;;-142.21;100.00;112049.66;5114340;28;20817;-80
2021/12/31 01:18:01;;;;;;;4.53;3.30;;;16.60;81.80;;;-142.21;100.00;112049.66;5114469;28;20426;-79
2021/12/31 01:20:29;;;;;;;3.43;2.97;;;16.70;82.00;;;-142.21;100.00;112049.66;5115059;28;20783;-77
2021/12/31 01:22:56;;;;;;;5.80;3.10;;;16.70;81.80;;;-142.21;100.00;112049.66;5113559;28;21020;-75
2021/12/31 01:25:24;;;;;;;4.50;3.10;;;16.70;81.70;;;-142.21;100.00;112049.66;5114676;28;20529;-79
2021/12/31 01:27:53;;;;;;;4.20;3.03;;;16.60;81.90;;;-142.21;100.00;112049.66;5093937;28;21005;-79
2021/12/31 01:30:20;;;;;;;4.47;3.30;;;16.60;81.90;;;-142.21;100.00;112049.66;5058195;28;20478;-80
2021/12/31 01:32:48;;;;;;;4.17;3.40;;;16.60;82.00;;;-142.21;100.00;112049.66;5093979;28;20482;-79
2021/12/31 01:35:16;;;;;;;6.27;3.10;;;16.50;82.00;;;-142.21;100.00;112049.66;5111085;28;20477;-79
2021/12/31 01:37:43;;;;;;;3.60;2.90;;;16.50;82.00;;;-142.21;100.00;112049.66;5114230;28;20538;-79
2021/12/31 01:40:12;;;;;;;3.87;3.00;;;16.40;82.00;;;-142.21;100.00;112049.66;5113649;28;20440;-80
2021/12/31 01:42:40;;;;;;;3.70;3.33;;;16.30;82.60;;;-142.21;100.00;112049.66;5100627;28;20937;-78
2021/12/31 01:45:16;;;;;;;3.87;3.13;;;16.30;83.00;;;-142.21;100.00;112049.66;5093281;28;20924;-78
2021/12/31 01:47:56;;;;;;;3.63;3.30;;;16.30;82.70;;;-142.21;100.00;112049.66;5056933;28;20431;-79
2021/12/31 01:50:28;;;;;;;4.10;3.20;;;16.40;82.50;;;-142.21;100.00;112049.66;5075714;28;20533;-77
2021/12/31 01:52:56;;;;;;;3.40;2.77;;;16.40;82.40;;;-142.21;100.00;112049.66;5093230;28;20439;-78
2021/12/31 01:55:27;;;;;;;4.77;3.40;;;16.40;82.40;;;-142.21;100.00;112049.66;5093287;28;20474;-76
2021/12/31 01:57:56;;;;;;;3.40;2.60;;;16.40;82.20;;;-142.21;100.00;112049.66;5093529;28;20443;-79
2021/12/31 02:00:25;;;;;;;4.53;2.87;;;16.40;82.20;;;-142.21;100.00;112049.66;5097884;28;20459;-78
2021/12/31 02:02:53;;;;;;;5.70;3.10;;;16.30;82.90;;;-142.21;100.00;112049.66;5091311;28;20542;-78
2021/12/31 02:05:21;;;;;;;4.43;3.10;;;16.20;82.50;;;-142.21;100.00;112049.66;5093218;28;20450;-78
2021/12/31 02:07:49;;;;;;;3.33;2.60;;;16.30;82.20;;;-142.21;100.00;112049.66;5092255;28;20531;-79
2021/12/31 02:10:16;;;;;;;4.03;3.00;;;16.30;82.20;;;-142.21;100.00;112049.66;5093204;28;20534;-79
2021/12/31 02:12:46;;;;;;;5.57;2.90;;;16.20;82.90;;;-142.21;100.00;112049.66;5082574;28;20825;-79
2021/12/31 02:15:14;;;;;;;3.77;3.03;;;16.20;82.00;;;-142.21;100.00;112049.66;5101938;28;20849;-79
2021/12/31 02:17:44;;;;;;;3.20;2.70;;;16.10;82.20;;;-142.21;100.00;112049.66;5092435;28;20984;-76
2021/12/31 02:20:15;;;;;;;4.53;2.83;;;15.90;82.10;;;-142.21;100.00;112049.66;5092656;28;20468;-78
2021/12/31 02:22:51;;;;;;;4.03;2.80;;;15.90;82.40;;;-142.21;100.00;112049.66;5090770;28;20521;-78
2021/12/31 02:25:20;;;;;;;3.63;3.10;;;15.80;82.30;;;-142.21;100.00;112049.66;5093437;28;20431;-79
2021/12/31 02:27:47;;;;;;;6.33;3.30;;;15.70;82.50;;;-142.21;100.00;112049.66;5092292;28;20577;-80
2021/12/31 02:30:15;;;;;;;4.10;3.10;;;15.70;82.90;;;-142.21;100.00;112049.66;5092968;28;20533;-80
2021/12/31 02:32:43;;;;;;;3.47;3.00;;;15.60;83.10;;;-142.21;100.00;112049.66;5092590;28;20481;-79
2021/12/31 02:35:11;;;;;;;4.57;3.13;;;15.50;83.10;;;-142.21;100.00;112049.66;5092913;28;20453;-80
2021/12/31 02:37:40;;;;;;;3.60;3.30;;;15.50;83.30;;;-142.21;100.00;112049.66;5093683;28;20529;-80
2021/12/31 02:40:14;;;;;;;3.90;2.87;;;15.50;83.10;;;-142.21;100.00;112049.66;5112860;28;20460;-80
2021/12/31 02:42:42;;;;;;;3.70;3.40;;;15.40;82.50;;;-142.21;100.00;112049.66;5112796;28;20473;-79
2021/12/31 02:45:12;;;;;;;3.13;2.83;;;15.60;82.20;;;-142.21;100.00;112049.66;5112905;28;20449;-80
2021/12/31 02:47:45;;;;;;;5.60;3.50;;;15.60;81.80;;;-142.21;100.00;112049.66;5113617;28;20487;-79
2021/12/31 02:50:16;;;;;;;4.50;3.20;;;15.70;81.70;;;-142.21;100.00;112049.66;5109996;28;20466;-79
2021/12/31 02:52:48;;;;;;;3.50;3.20;;;15.70;81.20;;;-142.21;100.00;112049.66;5092719;28;20439;-78
2021/12/31 02:55:18;;;;;;;4.70;3.20;;;15.60;81.20;;;-142.21;100.00;112049.66;5111263;28;20529;-79
2021/12/31 02:57:46;;;;;;;4.47;3.23;;;15.60;81.00;;;-142.21;100.00;112049.66;5112370;28;20449;-78
2021/12/31 03:00:14;;;;;;;4.33;3.60;;;15.60;80.40;;;-142.21;100.00;112049.66;5112442;28;20945;-79
2021/12/31 03:02:44;;;;;;;3.90;3.50;;;15.50;80.50;;;-142.21;100.00;112049.66;5112709;28;20446;-78
2021/12/31 03:05:12;;;;;;;3.30;3.00;;;15.50;80.10;;;-142.21;100.00;112049.66;5112167;28;20528;-78
2021/12/31 03:07:43;;;;;;;3.50;3.20;;;15.40;80.10;;;-142.21;100.00;112049.66;5112860;28;20545;-79
2021/12/31 03:10:20;;;;;;;4.67;3.50;;;15.40;80.20;;;-142.21;100.00;112049.66;5093568;28;20480;-79
2021/12/31 03:12:51;;;;;;;5.37;3.43;;;15.40;80.00;;;-142.21;100.00;112049.66;5092445;28;20544;-78
2021/12/31 03:15:18;;;;;;;4.97;3.73;;;15.40;80.00;;;-142.21;100.00;112049.66;5091887;28;20435;-79
2021/12/31 03:17:46;;;;;;;4.23;3.83;;;15.30;79.70;;;-142.21;100.00;112049.66;5093119;28;20990;-78
2021/12/31 03:20:36;;;;;;;5.10;4.10;;;15.30;79.40;;;-142.21;100.00;112049.66;5112367;28;20437;-78
2021/12/31 03:23:04;;;;;;;5.60;4.03;;;15.20;79.20;;;-142.21;100.00;112049.66;5112599;28;20922;-80
2021/12/31 03:25:34;;;;;;;6.10;3.50;;;15.10;79.10;;;-142.21;100.00;112049.66;5111816;28;20538;-79
2021/12/31 03:28:01;;;;;;;6.87;3.47;;;15.10;79.10;;;-142.21;100.00;112049.66;5112413;28;20933;-78
2021/12/31 03:30:28;;;;;;;6.90;3.73;;;15.00;78.90;;;-142.21;100.00;112049.66;5112159;28;20495;-79
2021/12/31 03:33:04;;;;;;;3.93;3.03;;;14.90;79.00;;;-142.21;100.00;112049.66;5112580;28;20534;-78
2021/12/31 03:35:31;;;;;;;4.87;3.37;;;14.90;79.20;;;-142.21;100.00;112049.66;5111661;28;20462;-79
2021/12/31 03:37:59;;;;;;;4.33;3.47;;;14.90;78.90;;;-142.21;100.00;112049.66;5112364;28;20538;-78
2021/12/31 03:40:26;;;;;;;4.80;3.30;;;14.80;78.70;;;-142.21;100.00;112049.66;5112432;28;20462;-78
2021/12/31 03:42:54;;;;;;;4.93;3.50;;;14.80;78.50;;;-142.21;100.00;112049.66;5112237;28;20540;-78
2021/12/31 03:45:22;;;;;;;3.30;3.00;;;14.70;78.50;;;-142.21;100.00;112049.66;5114196;28;20544;-78
2021/12/31 03:47:49;;;;;;;3.03;2.80;;;14.60;78.80;;;-142.21;100.00;112049.66;5115901;28;20478;-78
2021/12/31 03:50:16;;;;;;;2.70;2.50;;;14.60;78.70;;;-142.21;100.00;112049.66;5116308;28;20497;-78
2021/12/31 03:52:43;;;;;;;2.93;2.70;;;14.50;78.60;;;-142.21;100.00;112049.66;5115926;28;20907;-78
2021/12/31 03:55:12;;;;;;;3.03;2.83;;;14.60;78.30;;;-142.21;100.00;112049.66;5116007;28;20442;-78
2021/12/31 03:57:40;;;;;;;4.20;2.57;;;14.50;78.30;;;-142.21;100.00;112049.66;5116527;28;20493;-79
2021/12/31 04:00:12;;;;;;;7.10;3.30;;;14.50;78.20;;;-142.21;100.00;112049.66;5116014;28;20528;-79
2021/12/31 04:02:39;;;;;;;15.63;3.50;;;14.40;78.10;;;-142.21;100.00;112049.66;5115827;28;20470;-79
2021/12/31 04:05:07;;;;;;;3.50;2.50;;;14.30;78.50;;;-142.21;100.00;112049.66;5115847;28;20488;-80
2021/12/31 04:07:34;;;;;;;3.53;2.70;;;14.30;78.30;;;-142.21;100.00;112049.66;5116425;28;20455;-79
2021/12/31 04:10:02;;;;;;;3.63;2.53;;;14.30;78.20;;;-142.21;100.00;112049.66;5115605;28;20489;-79
2021/12/31 04:12:30;;;;;;;2.73;2.53;;;14.20;77.80;;;-142.21;100.00;112049.66;5115792;28;20462;-79
2021/12/31 04:14:59;;;;;;;3.40;3.10;;;14.20;77.90;;;-142.21;100.00;112049.66;5114226;28;20529;-79
2021/12/31 04:17:27;;;;;;;3.30;2.47;;;14.10;77.50;;;-142.21;100.00;112049.66;5115831;28;20564;-79
2021/12/31 04:19:56;;;;;;;2.60;2.40;;;14.10;77.80;;;-142.21;100.00;112049.66;5116358;28;20444;-79
2021/12/31 04:22:25;;;;;;;4.03;2.60;;;14.00;77.70;;;-142.21;100.00;112049.66;5115316;28;21324;-79
2021/12/31 04:24:53;;;;;;;3.97;2.43;;;14.00;77.90;;;-142.21;100.00;112049.66;5115637;28;20933;-79
2021/12/31 04:27:22;;;;;;;3.00;2.47;;;14.00;78.00;;;-142.21;100.00;112049.66;5115246;28;20449;-79
2021/12/31 04:29:52;;;;;;;3.07;2.70;;;13.90;78.00;;;-142.21;100.00;112049.66;5115582;28;20575;-79
2021/12/31 04:32:24;;;;;;;4.27;3.00;;;13.90;77.80;;;-142.21;100.00;112049.66;5115328;28;20457;-79
2021/12/31 04:34:53;;;;;;;3.53;2.33;;;13.90;77.70;;;-142.21;100.00;112049.66;5116123;28;20820;-79
2021/12/31 04:37:20;;;;;;;2.37;2.10;;;13.80;77.20;;;-142.21;100.00;112049.66;5114926;28;20457;-80
2021/12/31 04:39:47;;;;;;;3.13;2.10;;;13.70;77.60;;;-142.21;100.00;112049.66;5115600;28;20484;-79
2021/12/31 04:42:14;;;;;;;2.17;1.70;;;13.60;77.30;;;-142.21;100.00;112049.66;5115692;28;20890;-80
2021/12/31 04:44:41;;;;;;;24.97;3.30;;;13.60;78.00;;;-142.21;100.00;112049.66;5114840;28;20941;-79
2021/12/31 04:47:09;;;;;;;19.83;3.17;;;13.50;78.50;;;-142.21;100.00;112049.66;5115550;28;20504;-79
2021/12/31 04:49:36;;;;;;;34.17;3.60;;;13.40;78.90;;;-142.21;100.00;112049.66;5115079;28;20572;-79
2021/12/31 04:52:05;;;;;;;75.43;4.83;;;13.40;79.40;;;-142.21;100.00;112049.66;5115419;28;20450;-79
2021/12/31 04:54:32;;;;;;;58.53;4.77;;;13.40;79.60;;;-142.21;100.00;112049.66;5114472;28;20536;-79
2021/12/31 04:57:00;;;;;;;51.27;3.77;;;13.20;79.70;;;-142.21;100.00;112049.66;5115033;28;20488;-79
2021/12/31 04:59:27;;;;;;;18.57;2.93;;;13.20;80.00;;;-142.21;100.00;112049.66;5115195;28;20449;-79
2021/12/31 05:01:54;;;;;;;28.30;3.10;;;13.10;80.20;;;-142.21;100.00;112049.66;5112757;28;20441;-79
2021/12/31 05:04:21;;;;;;;41.27;4.03;;;13.00;80.30;;;-142.21;100.00;112049.66;5115470;28;20478;-79
2021/12/31 05:06:50;;;;;;;33.17;4.20;;;12.90;80.30;;;-142.21;100.00;112049.66;5112031;28;20544;-79
2021/12/31 05:09:19;;;;;;;23.63;3.40;;;12.80;80.60;;;-142.21;100.00;112049.66;5115424;28;20623;-79
2021/12/31 05:11:46;;;;;;;16.93;3.57;;;12.80;80.60;;;-142.21;100.00;112049.66;5114711;28;20869;-78
2021/12/31 05:14:13;;;;;;;12.57;2.90;;;12.80;80.40;;;-142.21;100.00;112049.66;5114899;28;20777;-79
2021/12/31 05:16:40;;;;;;;9.57;2.20;;;12.80;80.40;;;-142.21;100.00;112049.66;5114494;28;20971;-79
2021/12/31 05:19:08;;;;;;;6.57;2.30;;;12.80;80.50;;;-142.21;100.00;112049.66;5114577;28;20545;-79
2021/12/31 05:21:35;;;;;;;8.13;2.43;;;12.80;79.20;;;-142.21;100.00;112049.66;5114941;28;20481;-79
2021/12/31 05:24:02;;;;;;;5.13;2.20;;;12.80;79.00;;;-142.21;100.00;112049.66;5114149;28;20524;-78
2021/12/31 05:26:31;;;;;;;5.20;2.30;;;12.80;78.60;;;-142.21;100.00;112049.66;5110899;28;20810;-78
2021/12/31 05:28:58;;;;;;;5.23;3.17;;;12.80;78.40;;;-142.21;100.00;112049.66;5114353;28;20545;-79
2021/12/31 05:31:25;;;;;;;3.23;2.30;;;12.90;78.20;;;-142.21;100.00;112049.66;5114751;28;20448;-79
2021/12/31 05:33:52;;;;;;;3.87;2.43;;;12.80;77.80;;;-142.21;100.00;112049.66;5114876;28;20799;-79
2021/12/31 05:36:19;;;;;;;5.57;3.00;;;12.80;78.50;;;-142.21;100.00;112049.66;5113264;28;20537;-78
2021/12/31 05:38:49;;;;;;;7.20;2.77;;;12.80;77.80;;;-142.21;100.00;112049.66;5113983;28;20560;-79
2021/12/31 05:41:17;;;;;;;29.77;4.43;;;12.80;77.90;;;-142.21;100.00;112049.66;5113827;28;20453;-79
2021/12/31 05:43:45;;;;;;;27.17;4.10;;;12.80;78.30;;;-142.21;100.00;112049.66;5114494;28;20879;-79
2021/12/31 05:46:12;;;;;;;20.63;3.60;;;12.70;78.50;;;-142.21;100.00;112049.66;5113927;28;20534;-79
2021/12/31 05:48:40;;;;;;;28.60;3.97;;;12.70;79.00;;;-142.21;100.00;112049.66;5114614;28;20820;-79
2021/12/31 05:51:07;;;;;;;10.50;3.03;;;12.70;78.50;;;-142.21;100.00;112049.66;5113757;28;20568;-80
2021/12/31 05:53:34;;;;;;;8.27;3.13;;;12.60;78.30;;;-142.21;100.00;112049.66;5113824;28;20473;-79
2021/12/31 05:56:01;;;;;;;3.17;2.63;;;12.50;78.40;;;-142.21;100.00;112049.66;5114552;28;20523;-79
2021/12/31 05:58:30;;;;;;;4.00;2.37;;;12.50;78.30;;;-142.21;100.00;112049.66;5113284;28;20477;-78
2021/12/31 06:00:59;;;;;;;9.03;2.53;;;12.40;78.40;;;-142.21;100.00;112049.66;5113824;28;20553;-79
2021/12/31 06:03:27;;;;;;;53.60;6.43;;;12.40;77.90;;;-142.21;100.00;112049.66;5114174;28;20528;-77
2021/12/31 06:05:54;;;;;;;41.40;4.37;;;12.40;77.60;;;-142.21;100.00;112049.66;5113390;27;21046;-79
2021/12/31 06:08:22;;;;;;;31.77;3.60;;;12.30;78.30;;;-142.21;100.00;112049.66;5113597;28;20453;-79
2021/12/31 06:10:49;;;;;;;11.10;2.77;;;12.30;78.60;;;-142.21;100.00;112049.66;5108009;28;20580;-79
2021/12/31 06:13:17;;;;;;;14.23;2.40;;;12.30;78.90;;;-142.21;100.00;112049.66;5112588;28;20448;-79
2021/12/31 06:15:46;;;;;;;8.13;2.47;;;12.20;78.20;;;-142.21;100.00;112049.66;5113011;27;20470;-79
2021/12/31 06:18:15;;;;;;;4.23;2.00;;;12.20;77.70;;;-142.21;100.00;112049.66;5113748;28;20457;-78
2021/12/31 06:20:43;;;;;;;1.97;1.60;;;12.20;77.30;;;-142.21;100.00;112049.66;5112959;28;20536;-79
2021/12/31 06:23:10;;;;;;;2.03;1.50;;;12.20;77.30;;;-142.21;100.00;112049.66;5113638;28;20793;-79
2021/12/31 06:25:38;;;;;;;1.77;1.67;;;12.20;77.50;;;-142.21;100.00;112049.66;5113761;28;20524;-79
2021/12/31 06:28:05;;;;;;;2.30;2.10;;;12.20;77.30;;;-142.21;100.00;112049.66;5112901;28;20522;-80
2021/12/31 06:30:33;;;;;;;1.47;1.37;;;12.20;76.90;;;-142.21;100.00;112049.66;5113102;28;20499;-79
2021/12/31 06:33:01;;;;;;;1.60;1.50;;;12.20;77.10;;;-142.21;100.00;112049.66;5099659;28;20458;-79
2021/12/31 06:35:30;;;;;;;1.87;1.77;;;12.20;77.20;;;-142.21;100.00;112049.66;5092739;28;20431;-79
2021/12/31 06:37:58;;;;;;;1.80;1.70;;;12.20;77.90;;;-142.21;100.00;112049.66;5095805;28;20573;-78
2021/12/31 06:40:25;;;;;;;2.17;1.97;;;12.20;78.20;;;-142.21;100.00;112049.66;5113484;28;20432;-78
2021/12/31 06:42:53;;;;;;;1.97;1.53;;;12.20;77.20;;;-142.21;100.00;112049.66;5113368;28;20540;-78
2021/12/31 06:45:20;;;;;;;1.90;1.80;;;12.20;77.00;;;-142.21;100.00;112049.66;5112635;28;20837;-78
2021/12/31 06:47:47;;;;;;;2.00;1.80;;;12.20;76.70;;;-142.21;100.00;112049.66;5113252;28;21030;-78
2021/12/31 06:50:14;;;;;;;1.70;1.60;;;12.20;76.50;;;-142.21;100.00;112049.66;5112574;28;20492;-78
2021/12/31 06:52:43;;;;;;;1.73;1.63;;;12.10;76.30;;;-142.21;100.00;112049.66;5120585;27;20445;-78
2021/12/31 06:55:11;;;;;;;1.70;1.60;;;12.20;76.30;;;-142.21;100.00;112049.66;5133041;27;20452;-79
2021/12/31 06:57:38;;;;;;;2.40;2.20;;;12.10;76.40;;;-142.21;100.00;112049.66;5123234;27;20473;-77
2021/12/31 07:00:07;;;;;;;2.13;1.93;;;12.00;76.50;;;-142.21;100.00;112049.66;5092914;28;20478;-78
2021/12/31 07:02:35;;;;;;;1.60;1.50;;;12.00;76.30;;;-142.21;100.00;112049.66;5096936;28;20475;-78
2021/12/31 07:05:02;;;;;;;1.63;1.53;;;11.90;77.30;;;-142.21;100.00;112049.66;5112809;28;20476;-78
2021/12/31 07:07:29;;;;;;;1.80;1.70;;;11.80;76.90;;;-142.21;100.00;112049.66;5094524;28;20498;-78
2021/12/31 07:09:57;;;;;;;3.77;2.20;;;11.80;77.20;;;-142.21;100.00;112049.66;5112701;28;21019;-78
2021/12/31 07:12:25;;;;;;;1.97;1.77;;;11.80;76.70;;;-142.21;100.00;112049.66;5112126;28;20456;-78
2021/12/31 07:14:52;;;;;;;1.40;1.30;;;11.80;76.50;;;-142.21;100.00;112049.66;5113092;28;20515;-78
2021/12/31 07:17:19;;;;;;;2.23;1.60;;;11.80;76.70;;;-142.21;100.00;112049.66;5112616;28;20532;-78
2021/12/31 07:19:46;;;;;;;1.63;1.53;;;11.80;76.40;;;-142.21;100.00;112049.66;5111173;28;20552;-78
2021/12/31 07:22:13;;;;;;;2.57;1.70;;;11.80;76.30;;;-142.21;100.00;112049.66;5112739;28;20524;-78
2021/12/31 07:24:41;;;;;;;3.30;1.97;;;11.80;77.00;;;-142.21;100.00;112049.66;5112217;28;20481;-78
2021/12/31 07:27:09;;;;;;;2.10;1.90;;;11.80;75.90;;;-142.21;100.00;112049.66;5112253;28;20537;-78
2021/12/31 07:29:37;;;;;;;1.87;1.60;;;11.80;75.90;;;-142.21;100.00;112049.66;5112402;28;20528;-78
2021/12/31 07:32:05;;;;;;;2.17;1.97;;;11.80;75.90;;;-142.21;100.00;112049.66;5111827;28;20500;-77
2021/12/31 07:34:32;;;;;;;2.20;2.00;;;11.70;75.90;;;-142.21;100.00;112049.66;5095716;28;20461;-78
2021/12/31 07:36:59;;;;;;;2.50;2.20;;;11.60;77.00;;;-142.21;100.00;112049.66;5091712;28;20949;-78
2021/12/31 07:39:31;;;;;;;2.03;1.80;;;11.60;76.60;;;-142.21;100.00;112049.66;5102256;28;20573;-78
2021/12/31 07:41:58;;;;;;;2.07;1.70;;;11.50;76.90;;;-142.21;100.00;112049.66;5091688;28;20430;-78
2021/12/31 07:44:27;;;;;;;1.60;1.50;;;11.50;76.40;;;-142.21;100.00;112049.66;5089599;28;20456;-78
2021/12/31 07:46:54;;;;;;;1.90;1.80;;;11.50;76.70;;;-142.21;100.00;112049.66;5093324;28;20485;-78
2021/12/31 07:49:21;;;;;;;1.87;1.60;;;11.50;76.70;;;-142.21;100.00;112049.66;5111831;28;20460;-78
2021/12/31 07:51:51;;;;;;;4.00;2.47;;;11.50;76.50;;;-142.21;100.00;112049.66;5112565;28;20499;-78
2021/12/31 07:54:19;;;;;;;1.97;1.70;;;11.50;76.10;;;-142.21;100.00;112049.66;5102789;28;20958;-78
2021/12/31 07:56:46;;;;;;;3.03;2.30;;;11.60;76.20;;;-142.21;100.00;112049.66;5082072;28;20479;-78
2021/12/31 07:59:13;;;;;;;2.27;2.07;;;11.60;76.10;;;-142.21;100.00;112049.66;5071227;28;20534;-78
2021/12/31 08:01:42;;;;;;;2.10;1.77;;;11.60;75.90;;;-142.21;100.00;112049.66;5080419;28;20452;-80
2021/12/31 08:04:09;;;;;;;1.87;1.77;;;11.70;75.90;;;-142.21;100.00;112049.66;5083703;28;20549;-78
2021/12/31 08:06:36;;;;;;;2.10;1.90;;;11.70;76.20;;;-142.21;100.00;112049.66;5091555;28;20485;-78
2021/12/31 08:09:03;;;;;;;1.73;1.63;;;11.60;76.30;;;-142.21;100.00;112049.66;5091899;28;20446;-78
2021/12/31 08:11:30;;;;;;;1.97;1.87;;;11.60;76.00;;;-142.21;100.00;112049.66;5073674;28;20980;-78
2021/12/31 08:13:58;;;;;;;2.07;1.97;;;11.90;75.90;;;-142.21;100.00;112049.66;5085509;28;20557;-79
2021/12/31 08:16:25;;;;;;;2.33;2.13;;;12.10;76.20;;;-142.21;100.00;112049.66;5091046;28;20451;-78
2021/12/31 08:18:53;;;;;;;2.27;2.07;;;12.50;74.60;;;-142.21;100.00;112049.66;5094797;28;20461;-78
2021/12/31 08:21:32;;;;;;;2.50;2.30;;;12.90;73.50;;;-142.21;100.00;112049.66;5091343;28;20530;-78
2021/12/31 08:23:59;;;;;;;1.97;1.83;;;12.80;73.40;;;-142.21;100.00;112049.66;5071352;28;20439;-79
2021/12/31 08:26:27;;;;;;;1.47;1.37;;;12.70;74.20;;;-142.21;100.00;112049.66;5074492;28;20537;-78
2021/12/31 08:28:55;;;;;;;1.60;1.50;;;12.70;74.40;;;-142.21;100.00;112049.66;5091185;28;20442;-79
2021/12/31 08:31:23;;;;;;;1.87;1.77;;;12.80;74.40;;;-142.21;100.00;112049.66;5092253;28;20482;-78
2021/12/31 08:33:50;;;;;;;1.67;1.57;;;13.00;74.10;;;-142.21;100.00;112049.66;5094975;28;20446;-79
2021/12/31 08:36:18;;;;;;;2.53;2.00;;;13.00;74.20;;;-142.21;100.00;112049.66;5099385;28;20541;-79
2021/12/31 08:38:45;;;;;;;2.23;1.57;;;13.40;73.70;;;-142.21;100.00;112049.66;5104527;28;20560;-79
2021/12/31 08:41:14;;;;;;;1.50;1.40;;;13.50;72.90;;;-142.21;100.00;112049.66;5115815;28;20473;-78
2021/12/31 08:43:41;;;;;;;2.07;1.70;;;13.60;73.80;;;-142.21;100.00;112049.66;5115237;28;20461;-79
2021/12/31 08:46:08;;;;;;;1.80;1.60;;;14.00;74.00;;;-142.21;100.00;112049.66;5114460;28;20532;-79
2021/12/31 08:48:35;;;;;;;2.17;1.60;;;14.70;71.80;;;-142.21;100.00;112049.66;5115564;28;20476;-79
2021/12/31 08:51:02;;;;;;;2.77;1.80;;;15.00;69.80;;;-142.21;100.00;112049.66;5115163;28;20568;-79
2021/12/31 08:53:31;;;;;;;1.90;1.80;;;15.10;69.80;;;-142.21;100.00;112049.66;5115154;28;20548;-78
2021/12/31 08:56:20;;;;;;;2.37;2.10;;;14.90;69.90;;;-142.21;100.00;112049.66;5115073;28;20477;-79
2021/12/31 08:59:19;;;;;;;2.50;2.10;;;14.80;70.80;;;-142.21;100.00;112049.66;5110971;28;20485;-80
2021/12/31 09:01:46;;;;;;;3.47;2.53;;;14.70;71.60;;;-142.21;100.00;112049.66;5115509;28;20445;-78
2021/12/31 09:04:14;;;;;;;2.40;2.20;;;14.60;73.10;;;-142.21;100.00;112049.66;5114942;28;20528;-78
2021/12/31 09:06:43;;;;;;;6.67;2.77;;;14.60;73.10;;;-142.21;100.00;112049.66;5110218;28;20488;-78
2021/12/31 09:09:12;;;;;;;3.77;2.77;;;14.60;73.20;;;-142.21;100.00;112049.66;5099105;28;20478;-78
2021/12/31 09:11:40;;;;;;;3.13;2.80;;;14.90;73.50;;;-142.21;100.00;112049.66;5109381;28;20561;-78
2021/12/31 09:14:07;;;;;;;3.27;2.97;;;15.10;73.10;;;-142.21;100.00;112049.66;5107489;28;20480;-78
2021/12/31 09:16:34;;;;;;;3.40;2.83;;;15.10;73.20;;;-142.21;100.00;112049.66;5095025;28;20509;-79
2021/12/31 09:19:15;;;;;;;3.27;2.83;;;15.20;73.60;;;-142.21;100.00;112049.66;5094705;28;20542;-79
2021/12/31 09:21:42;;;;;;;3.37;2.97;;;15.50;72.30;;;-142.21;100.00;112049.66;5104104;28;20449;-79
2021/12/31 09:24:12;;;;;;;3.97;2.90;;;15.80;71.80;;;-142.21;100.00;112049.66;5114726;28;20473;-77
2021/12/31 09:26:52;;;;;;;3.37;2.90;;;16.10;71.70;;;-142.21;100.00;112049.66;5114115;28;20449;-79
2021/12/31 09:29:21;;;;;;;3.27;2.97;;;16.30;70.80;;;-142.21;100.00;112049.66;5110734;28;20468;-78
2021/12/31 09:31:49;;;;;;;3.30;3.00;;;16.30;70.50;;;-142.21;100.00;112049.66;5114098;28;20485;-78
2021/12/31 09:34:17;;;;;;;3.77;3.17;;;16.20;70.90;;;-142.21;100.00;112049.66;5103962;28;21021;-78
2021/12/31 09:36:45;;;;;;;5.13;3.07;;;16.30;70.70;;;-142.21;100.00;112049.66;5108709;28;20485;-76
2021/12/31 09:39:17;;;;;;;4.67;2.87;;;16.70;70.20;;;-142.21;100.00;112049.66;5105071;28;20508;-80
2021/12/31 09:41:46;;;;;;;3.30;3.00;;;16.90;69.50;;;-142.21;100.00;112049.66;5107272;28;20454;-77
2021/12/31 09:44:15;;;;;;;2.90;2.60;;;17.00;69.00;;;-142.21;100.00;112049.66;5110160;28;20445;-79
2021/12/31 09:46:43;;;;;;;3.43;3.13;;;17.30;68.60;;;-142.21;100.00;112049.66;5111565;28;20461;-77
2021/12/31 09:49:11;;;;;;;3.03;2.60;;;17.70;67.00;;;-142.21;100.00;112049.66;5106681;28;20539;-80
2021/12/31 09:51:44;;;;;;;3.07;2.77;;;17.80;65.80;;;-142.21;100.00;112049.66;5114046;28;20568;-79
2021/12/31 09:54:13;;;;;;;2.87;2.57;;;17.90;65.70;;;-142.21;93.02;112049.66;5110653;28;20461;-80
2021/12/31 09:59:40;;;;;;;4.00;2.50;;;19.80;61.20;;;-142.21;96.84;112049.66;5118120;28;20457;-78
2021/12/31 10:02:09;;;;;;;2.77;2.57;;;20.50;59.80;;;-142.21;78.62;112049.66;5113146;28;20214;-79